createdAt,value
2022-08-24T00:00:58.495Z,1.70
2022-08-24T00:01:58.701Z,1.30
2022-08-24T00:02:58.626Z,1.50
2022-08-24T00:03:59.583Z,1.60
2022-08-24T00:04:58.425Z,1.70
2022-08-24T00:05:58.406Z,2.20
2022-08-24T00:06:58.405Z,1.50
2022-08-24T00:07:59.300Z,2.10
2022-08-24T00:08:58.387Z,2.00
2022-08-24T00:09:58.378Z,1.40
2022-08-24T00:10:58.360Z,1.70
2022-08-24T00:11:59.276Z,2.90
2022-08-24T00:12:58.359Z,1.70
2022-08-24T00:13:58.321Z,1.40
2022-08-24T00:14:58.313Z,1.70
2022-08-24T00:15:58.295Z,1.90
2022-08-24T00:16:58.354Z,1.70
2022-08-24T00:17:59.282Z,1.50
2022-08-24T00:18:59.385Z,2.80
2022-08-24T00:19:58.283Z,1.90
2022-08-24T00:20:58.742Z,2.40
2022-08-24T00:21:58.235Z,1.60
2022-08-24T00:22:58.218Z,2.00
2022-08-24T00:23:58.235Z,2.20
2022-08-24T00:24:58.212Z,2.70
2022-08-24T00:25:58.197Z,1.90
2022-08-24T00:26:58.199Z,1.70
2022-08-24T00:28:04.970Z,3.10
2022-08-24T00:28:58.191Z,1.90
2022-08-24T00:29:58.321Z,1.90
2022-08-24T00:30:58.144Z,1.90
2022-08-24T00:31:58.207Z,1.80
2022-08-24T00:32:58.127Z,1.70
2022-08-24T00:33:58.741Z,2.10
2022-08-24T00:34:59.157Z,1.80
2022-08-24T00:35:58.093Z,1.90
2022-08-24T00:36:58.076Z,2.00
2022-08-24T00:37:58.113Z,1.90
2022-08-24T00:38:58.045Z,1.90
2022-08-24T00:39:58.177Z,2.20
2022-08-24T00:40:58.746Z,2.00
2022-08-24T00:41:58.020Z,1.80
2022-08-24T00:42:58.024Z,1.80
2022-08-24T00:43:58.015Z,2.40
2022-08-24T00:44:57.989Z,2.10
2022-08-24T00:45:58.312Z,2.00
2022-08-24T00:46:57.967Z,1.80
2022-08-24T00:48:00.754Z,1.90
2022-08-24T00:48:57.953Z,2.50
2022-08-24T00:49:58.757Z,1.90
2022-08-24T00:50:57.954Z,1.70
2022-08-24T00:51:57.926Z,1.80
2022-08-24T00:53:00.748Z,2.40
2022-08-24T00:53:57.890Z,1.90
2022-08-24T00:54:57.890Z,2.20
2022-08-24T00:55:57.877Z,2.20
2022-08-24T00:56:57.879Z,2.00
2022-08-24T00:57:57.845Z,1.90
2022-08-24T00:58:57.849Z,2.50
2022-08-24T00:59:57.815Z,1.90
2022-08-24T01:00:57.965Z,2.00
2022-08-24T01:01:57.836Z,2.00
2022-08-24T01:02:58.847Z,1.80
2022-08-24T01:03:57.778Z,1.90
2022-08-24T01:04:57.781Z,2.10
2022-08-24T01:05:57.748Z,2.30
2022-08-24T01:06:57.748Z,2.00
2022-08-24T01:07:57.844Z,2.60
2022-08-24T01:08:58.253Z,2.30
2022-08-24T01:10:00.279Z,1.90
2022-08-24T01:10:57.709Z,2.30
2022-08-24T01:11:57.732Z,2.10
2022-08-24T01:13:00.990Z,2.00
2022-08-24T01:13:58.253Z,3.00
2022-08-24T01:15:00.256Z,2.00
2022-08-24T01:15:57.700Z,2.80
2022-08-24T01:16:57.641Z,2.10
2022-08-24T01:17:57.714Z,2.10
2022-08-24T01:18:57.642Z,2.30
2022-08-24T01:19:57.616Z,3.40
2022-08-24T01:20:57.602Z,1.80
2022-08-24T01:21:57.596Z,2.70
2022-08-24T01:22:57.568Z,2.20
2022-08-24T01:23:57.792Z,2.20
2022-08-24T01:24:57.559Z,2.20
2022-08-24T01:25:57.575Z,2.10
2022-08-24T01:26:57.536Z,2.10
2022-08-24T01:27:57.583Z,1.70
2022-08-24T01:28:57.789Z,1.80
2022-08-24T01:29:57.505Z,2.20
2022-08-24T01:30:57.577Z,2.10
2022-08-24T01:31:57.481Z,1.70
2022-08-24T01:32:57.471Z,1.60
2022-08-24T01:33:57.457Z,2.30
2022-08-24T01:34:57.455Z,2.40
2022-08-24T01:35:57.443Z,2.30
2022-08-24T01:36:57.421Z,1.90
2022-08-24T01:37:57.411Z,1.80
2022-08-24T01:38:57.796Z,1.90
2022-08-24T01:39:57.454Z,2.50
2022-08-24T01:40:57.383Z,1.70
2022-08-24T01:41:58.258Z,2.70
2022-08-24T01:42:57.372Z,1.90
2022-08-24T01:43:57.348Z,1.90
2022-08-24T01:44:57.358Z,2.10
2022-08-24T01:45:57.342Z,2.20
2022-08-24T01:46:57.372Z,2.10
2022-08-24T01:47:57.384Z,1.80
2022-08-24T01:48:57.299Z,2.50
2022-08-24T01:49:57.305Z,2.30
2022-08-24T01:50:57.303Z,2.20
2022-08-24T01:51:57.245Z,1.70
2022-08-24T01:53:05.761Z,1.90
2022-08-24T01:53:58.764Z,2.90
2022-08-24T01:54:57.233Z,2.20
2022-08-24T01:55:57.226Z,2.20
2022-08-24T01:56:57.227Z,1.90
2022-08-24T01:57:57.198Z,2.70
2022-08-24T01:58:57.196Z,2.00
2022-08-24T01:59:57.779Z,1.70
2022-08-24T02:00:57.183Z,2.00
2022-08-24T02:01:57.244Z,2.10
2022-08-24T02:02:57.323Z,3.10
2022-08-24T02:03:57.136Z,3.50
2022-08-24T02:04:57.126Z,1.80
2022-08-24T02:05:57.115Z,2.10
2022-08-24T02:06:57.127Z,2.00
2022-08-24T02:07:57.083Z,1.80
2022-08-24T02:08:59.781Z,1.80
2022-08-24T02:09:57.066Z,1.80
2022-08-24T02:10:58.086Z,2.10
2022-08-24T02:11:57.062Z,2.10
2022-08-24T02:12:57.350Z,2.50
2022-08-24T02:13:57.027Z,2.00
2022-08-24T02:14:57.017Z,3.10
2022-08-24T02:15:57.037Z,2.30
2022-08-24T02:16:56.992Z,2.20
2022-08-24T02:17:57.012Z,2.40
2022-08-24T02:18:56.964Z,2.60
2022-08-24T02:19:57.773Z,2.40
2022-08-24T02:20:56.944Z,2.50
2022-08-24T02:21:56.934Z,2.20
2022-08-24T02:22:56.972Z,2.20
2022-08-24T02:23:56.934Z,2.40
2022-08-24T02:24:56.901Z,4.00
2022-08-24T02:25:56.895Z,2.40
2022-08-24T02:26:56.880Z,2.50
2022-08-24T02:27:56.870Z,2.20
2022-08-24T02:28:56.870Z,2.50
2022-08-24T02:29:56.847Z,2.30
2022-08-24T02:30:56.870Z,2.30
2022-08-24T02:31:56.831Z,2.60
2022-08-24T02:32:56.811Z,2.80
2022-08-24T02:33:56.828Z,3.70
2022-08-24T02:34:56.763Z,2.10
2022-08-24T02:35:56.781Z,2.20
2022-08-24T02:36:56.773Z,2.20
2022-08-24T02:37:56.742Z,2.20
2022-08-24T02:38:56.768Z,2.00
2022-08-24T02:39:56.743Z,2.00
2022-08-24T02:41:03.273Z,2.00
2022-08-24T02:41:56.718Z,2.00
2022-08-24T02:42:56.700Z,2.10
2022-08-24T02:43:56.678Z,2.40
2022-08-24T02:44:56.678Z,2.10
2022-08-24T02:45:56.679Z,2.20
2022-08-24T02:46:56.676Z,2.80
2022-08-24T02:47:56.636Z,2.50
2022-08-24T02:48:56.655Z,2.30
2022-08-24T02:49:57.628Z,2.40
2022-08-24T02:50:56.610Z,2.10
2022-08-24T02:51:56.593Z,2.40
2022-08-24T02:52:56.624Z,2.10
2022-08-24T02:53:56.591Z,2.30
2022-08-24T02:54:56.565Z,2.50
2022-08-24T02:55:56.547Z,2.20
2022-08-24T02:56:56.548Z,2.60
2022-08-24T02:57:56.547Z,2.00
2022-08-24T02:58:59.276Z,2.00
2022-08-24T02:59:56.501Z,2.30
2022-08-24T03:00:56.505Z,2.00
2022-08-24T03:01:56.523Z,2.20
2022-08-24T03:02:56.557Z,2.30
2022-08-24T03:03:59.275Z,2.30
2022-08-24T03:04:56.498Z,2.00
2022-08-24T03:05:56.429Z,2.10
2022-08-24T03:06:57.287Z,3.20
2022-08-24T03:07:56.419Z,2.10
2022-08-24T03:08:56.968Z,2.60
2022-08-24T03:09:56.420Z,1.90
2022-08-24T03:10:56.385Z,2.20
2022-08-24T03:11:56.383Z,2.00
2022-08-24T03:12:59.028Z,2.30
2022-08-24T03:13:56.361Z,2.20
2022-08-24T03:14:56.377Z,2.30
2022-08-24T03:15:56.352Z,2.20
2022-08-24T03:16:56.325Z,2.40
2022-08-24T03:17:56.304Z,2.30
2022-08-24T03:18:57.278Z,2.40
2022-08-24T03:20:03.276Z,4.20
2022-08-24T03:20:56.301Z,2.10
2022-08-24T03:21:56.300Z,2.30
2022-08-24T03:23:02.925Z,2.30
2022-08-24T03:23:56.238Z,2.00
2022-08-24T03:24:56.239Z,2.00
2022-08-24T03:25:56.222Z,2.20
2022-08-24T03:26:56.315Z,2.10
2022-08-24T03:27:56.217Z,2.60
2022-08-24T03:28:56.790Z,2.20
2022-08-24T03:29:56.174Z,2.40
2022-08-24T03:30:56.181Z,1.70
2022-08-24T03:31:56.165Z,2.60
2022-08-24T03:32:56.787Z,2.10
2022-08-24T03:33:56.134Z,2.00
2022-08-24T03:35:02.784Z,2.00
2022-08-24T03:35:56.123Z,2.10
2022-08-24T03:36:56.336Z,2.00
2022-08-24T03:37:58.778Z,2.10
2022-08-24T03:38:56.789Z,2.50
2022-08-24T03:39:56.172Z,2.40
2022-08-24T03:40:56.779Z,2.30
2022-08-24T03:41:56.052Z,2.40
2022-08-24T03:42:56.063Z,2.40
2022-08-24T03:43:56.310Z,2.10
2022-08-24T03:44:56.018Z,3.60
2022-08-24T03:45:56.051Z,2.50
2022-08-24T03:46:56.816Z,2.40
2022-08-24T03:47:56.326Z,2.60
2022-08-24T03:48:55.977Z,2.30
2022-08-24T03:49:56.118Z,2.30
2022-08-24T03:50:55.949Z,2.10
2022-08-24T03:51:56.134Z,2.90
2022-08-24T03:52:55.931Z,2.40
2022-08-24T03:53:56.312Z,2.40
2022-08-24T03:54:56.940Z,2.80
2022-08-24T03:55:55.915Z,2.30
2022-08-24T03:56:58.791Z,2.80
2022-08-24T03:57:55.885Z,2.70
2022-08-24T03:58:55.885Z,3.00
2022-08-24T03:59:55.881Z,2.50
2022-08-24T04:00:56.070Z,2.70
2022-08-24T04:01:55.988Z,2.70
2022-08-24T04:02:55.864Z,2.60
2022-08-24T04:03:55.801Z,2.80
2022-08-24T04:04:55.825Z,3.00
2022-08-24T04:05:55.797Z,3.50
2022-08-24T04:06:55.810Z,2.70
2022-08-24T04:07:56.287Z,2.30
2022-08-24T04:09:02.286Z,2.70
2022-08-24T04:09:55.778Z,2.70
2022-08-24T04:10:55.730Z,2.90
2022-08-24T04:11:55.748Z,2.70
2022-08-24T04:12:55.705Z,2.90
2022-08-24T04:13:55.715Z,2.70
2022-08-24T04:14:55.704Z,2.10
2022-08-24T04:15:55.741Z,2.70
2022-08-24T04:16:57.886Z,2.70
2022-08-24T04:17:55.698Z,2.70
2022-08-24T04:18:56.298Z,2.60
2022-08-24T04:19:55.644Z,2.30
2022-08-24T04:20:55.651Z,2.60
2022-08-24T04:21:55.814Z,2.70
2022-08-24T04:22:55.649Z,2.80
2022-08-24T04:23:55.619Z,3.10
2022-08-24T04:24:55.590Z,2.80
2022-08-24T04:25:55.602Z,3.00
2022-08-24T04:27:02.295Z,2.50
2022-08-24T04:27:55.575Z,2.90
2022-08-24T04:28:55.559Z,2.50
2022-08-24T04:29:55.537Z,2.60
2022-08-24T04:30:55.559Z,2.70
2022-08-24T04:31:55.613Z,2.60
2022-08-24T04:32:55.542Z,2.70
2022-08-24T04:33:55.489Z,2.70
2022-08-24T04:34:55.490Z,2.60
2022-08-24T04:35:55.476Z,2.60
2022-08-24T04:36:55.462Z,2.70
2022-08-24T04:37:55.472Z,2.40
2022-08-24T04:38:55.445Z,3.30
2022-08-24T04:39:55.498Z,2.70
2022-08-24T04:40:55.423Z,2.70
2022-08-24T04:41:57.505Z,2.80
2022-08-24T04:42:56.419Z,2.90
2022-08-24T04:43:55.392Z,2.90
2022-08-24T04:44:55.387Z,2.50
2022-08-24T04:45:56.438Z,2.90
2022-08-24T04:46:55.361Z,3.00
2022-08-24T04:47:55.372Z,2.80
2022-08-24T04:48:56.284Z,3.20
2022-08-24T04:49:55.351Z,3.30
2022-08-24T04:50:55.313Z,3.40
2022-08-24T04:51:56.299Z,3.20
2022-08-24T04:52:55.298Z,3.20
2022-08-24T04:53:55.314Z,3.20
2022-08-24T04:54:55.283Z,3.10
2022-08-24T04:55:57.801Z,3.00
2022-08-24T04:56:55.267Z,3.50
2022-08-24T04:57:55.245Z,3.20
2022-08-24T04:58:55.254Z,3.40
2022-08-24T04:59:55.223Z,2.80
2022-08-24T05:00:55.300Z,2.90
2022-08-24T05:01:55.279Z,2.50
2022-08-24T05:02:56.229Z,3.00
2022-08-24T05:03:55.204Z,2.80
2022-08-24T05:04:55.193Z,2.80
2022-08-24T05:05:57.794Z,3.40
2022-08-24T05:06:55.209Z,3.00
2022-08-24T05:07:56.696Z,3.10
2022-08-24T05:08:55.143Z,3.90
2022-08-24T05:09:55.117Z,3.30
2022-08-24T05:10:56.101Z,3.00
2022-08-24T05:11:55.098Z,2.90
2022-08-24T05:12:55.094Z,3.10
2022-08-24T05:13:55.088Z,3.40
2022-08-24T05:14:55.090Z,3.50
2022-08-24T05:15:55.094Z,3.20
2022-08-24T05:16:56.110Z,3.10
2022-08-24T05:17:56.290Z,3.50
2022-08-24T05:18:55.815Z,3.10
2022-08-24T05:19:55.010Z,3.70
2022-08-24T05:20:54.995Z,3.80
2022-08-24T05:21:54.991Z,3.20
2022-08-24T05:22:59.970Z,3.20
2022-08-24T05:23:54.990Z,3.40
2022-08-24T05:24:57.799Z,3.80
2022-08-24T05:25:57.800Z,3.80
2022-08-24T05:26:54.950Z,3.70
2022-08-24T05:27:54.931Z,3.60
2022-08-24T05:28:54.916Z,3.90
2022-08-24T05:29:56.972Z,4.20
2022-08-24T05:30:54.893Z,3.70
2022-08-24T05:31:54.908Z,3.80
2022-08-24T05:32:54.872Z,3.60
2022-08-24T05:33:54.864Z,3.90
2022-08-24T05:34:54.851Z,3.30
2022-08-24T05:35:55.337Z,4.30
2022-08-24T05:36:54.859Z,3.80
2022-08-24T05:37:54.817Z,3.30
2022-08-24T05:38:54.807Z,3.40
2022-08-24T05:39:54.846Z,3.60
2022-08-24T05:40:54.795Z,4.70
2022-08-24T05:41:54.778Z,3.40
2022-08-24T05:42:54.785Z,3.80
2022-08-24T05:43:57.305Z,3.80
2022-08-24T05:44:54.747Z,4.10
2022-08-24T05:45:54.740Z,3.50
2022-08-24T05:46:54.893Z,3.50
2022-08-24T05:47:54.717Z,3.20
2022-08-24T05:48:54.692Z,3.60
2022-08-24T05:49:55.306Z,3.90
2022-08-24T05:50:55.304Z,3.90
2022-08-24T05:51:54.672Z,3.70
2022-08-24T05:52:54.682Z,3.50
2022-08-24T05:53:54.696Z,3.30
2022-08-24T05:54:54.634Z,3.20
2022-08-24T05:55:55.314Z,3.50
2022-08-24T05:56:54.617Z,3.80
2022-08-24T05:57:54.609Z,3.60
2022-08-24T05:58:54.615Z,3.60
2022-08-24T05:59:55.342Z,3.60
2022-08-24T06:00:54.568Z,3.50
2022-08-24T06:01:54.711Z,3.20
2022-08-24T06:02:54.626Z,3.30
2022-08-24T06:03:54.573Z,3.30
2022-08-24T06:04:55.306Z,3.20
2022-08-24T06:05:55.311Z,3.80
2022-08-24T06:06:54.505Z,4.00
2022-08-24T06:07:55.316Z,3.60
2022-08-24T06:08:54.492Z,3.40
2022-08-24T06:09:54.500Z,4.00
2022-08-24T06:10:54.472Z,3.30
2022-08-24T06:11:55.310Z,3.10
2022-08-24T06:12:54.447Z,4.20
2022-08-24T06:13:59.307Z,3.60
2022-08-24T06:14:54.829Z,4.00
2022-08-24T06:16:19.631Z,3.90
2022-08-24T06:16:56.569Z,3.60
2022-08-24T06:17:54.566Z,3.60
2022-08-24T06:18:54.411Z,3.70
2022-08-24T06:19:54.390Z,3.80
2022-08-24T06:20:57.246Z,3.40
2022-08-24T06:21:54.362Z,3.30
2022-08-24T06:22:54.335Z,3.30
2022-08-24T06:23:54.326Z,3.60
2022-08-24T06:24:54.346Z,3.50
2022-08-24T06:25:56.815Z,4.30
2022-08-24T06:26:54.807Z,3.70
2022-08-24T06:27:54.296Z,3.60
2022-08-24T06:28:54.271Z,3.30
2022-08-24T06:30:15.308Z,3.40
2022-08-24T06:30:54.283Z,2.90
2022-08-24T06:31:56.880Z,3.20
2022-08-24T06:32:54.237Z,3.00
2022-08-24T06:33:54.227Z,2.60
2022-08-24T06:34:54.206Z,3.50
2022-08-24T06:35:54.226Z,3.30
2022-08-24T06:36:54.192Z,3.30
2022-08-24T06:37:54.181Z,3.20
2022-08-24T06:38:54.155Z,3.10
2022-08-24T06:39:54.907Z,3.20
2022-08-24T06:40:54.810Z,3.00
2022-08-24T06:41:54.149Z,2.60
2022-08-24T06:42:54.818Z,2.90
2022-08-24T06:43:54.813Z,3.30
2022-08-24T06:44:54.110Z,3.40
2022-08-24T06:45:54.343Z,2.50
2022-08-24T06:46:54.117Z,2.60
2022-08-24T06:47:54.067Z,3.30
2022-08-24T06:48:54.810Z,2.60
2022-08-24T06:49:56.830Z,2.70
2022-08-24T06:50:54.043Z,2.50
2022-08-24T06:51:54.029Z,2.60
2022-08-24T06:52:54.818Z,2.50
2022-08-24T06:53:54.017Z,2.50
2022-08-24T06:54:53.983Z,2.30
2022-08-24T06:55:53.989Z,2.30
2022-08-24T06:56:53.965Z,2.40
2022-08-24T06:57:53.964Z,2.40
2022-08-24T06:58:53.975Z,3.00
2022-08-24T06:59:53.939Z,3.40
2022-08-24T07:00:53.920Z,2.30
2022-08-24T07:01:53.942Z,2.40
2022-08-24T07:02:53.960Z,2.30
2022-08-24T07:03:53.883Z,3.10
2022-08-24T07:04:54.347Z,2.30
2022-08-24T07:05:53.859Z,2.10
2022-08-24T07:06:53.875Z,2.50
2022-08-24T07:07:53.855Z,2.40
2022-08-24T07:08:53.827Z,2.30
2022-08-24T07:09:53.825Z,3.00
2022-08-24T07:10:53.848Z,2.20
2022-08-24T07:12:00.336Z,1.90
2022-08-24T07:12:54.316Z,1.90
2022-08-24T07:13:53.785Z,3.20
2022-08-24T07:14:53.763Z,2.40
2022-08-24T07:15:53.818Z,1.90
2022-08-24T07:16:53.756Z,2.40
2022-08-24T07:17:53.728Z,2.90
2022-08-24T07:18:53.839Z,3.00
2022-08-24T07:19:53.714Z,1.80
2022-08-24T07:20:53.741Z,2.20
2022-08-24T07:21:54.316Z,3.40
2022-08-24T07:22:53.691Z,1.60
2022-08-24T07:23:53.669Z,2.10
2022-08-24T07:24:56.330Z,2.10
2022-08-24T07:25:56.322Z,3.20
2022-08-24T07:26:53.861Z,1.50
2022-08-24T07:27:53.628Z,2.10
2022-08-24T07:28:54.324Z,2.40
2022-08-24T07:30:26.424Z,2.00
2022-08-24T07:30:54.675Z,2.80
2022-08-24T07:31:54.331Z,1.90
2022-08-24T07:32:53.610Z,1.80
2022-08-24T07:33:53.562Z,1.70
2022-08-24T07:34:53.560Z,1.20
2022-08-24T07:35:55.117Z,2.00
2022-08-24T07:36:53.552Z,1.40
2022-08-24T07:38:01.605Z,1.50
2022-08-24T07:38:54.505Z,2.20
2022-08-24T07:39:53.600Z,1.10
2022-08-24T07:41:20.316Z,1.50
2022-08-24T07:42:13.327Z,1.20
2022-08-24T07:42:57.326Z,1.50
2022-08-24T07:43:53.479Z,1.40
2022-08-24T07:44:53.453Z,1.40
2022-08-24T07:45:54.380Z,1.70
2022-08-24T07:46:53.506Z,2.30
2022-08-24T07:47:55.809Z,2.40
2022-08-24T07:49:04.960Z,1.20
2022-08-24T07:49:54.392Z,1.40
2022-08-24T07:50:53.382Z,1.10
2022-08-24T07:51:53.379Z,1.20
2022-08-24T07:52:54.377Z,1.20
2022-08-24T07:53:54.379Z,1.10
2022-08-24T07:54:54.378Z,3.30
2022-08-24T07:55:53.320Z,1.60
2022-08-24T07:56:53.319Z,1.00
2022-08-24T07:57:53.314Z,1.40
2022-08-24T07:58:55.833Z,1.30
2022-08-24T07:59:53.298Z,1.30
2022-08-24T08:00:53.295Z,1.60
2022-08-24T08:01:53.292Z,2.10
2022-08-24T08:02:53.286Z,1.10
2022-08-24T08:03:53.275Z,1.10
2022-08-24T08:04:55.829Z,1.30
2022-08-24T08:05:53.228Z,1.50
2022-08-24T08:06:53.323Z,1.20
2022-08-24T08:07:53.829Z,1.30
2022-08-24T08:08:53.174Z,1.20
2022-08-24T08:09:53.201Z,1.30
2022-08-24T08:10:53.166Z,1.60
2022-08-24T08:11:53.170Z,3.40
2022-08-24T08:12:53.120Z,1.30
2022-08-24T08:13:55.827Z,2.70
2022-08-24T08:14:53.364Z,1.60
2022-08-24T08:15:57.970Z,1.50
2022-08-24T08:16:54.092Z,3.20
2022-08-24T08:17:55.702Z,1.10
2022-08-24T08:19:09.379Z,1.70
2022-08-24T08:19:54.362Z,0.90
2022-08-24T08:20:53.056Z,1.30
2022-08-24T08:21:53.042Z,1.30
2022-08-24T08:22:53.035Z,1.10
2022-08-24T08:23:53.018Z,1.60
2022-08-24T08:24:53.007Z,1.90
2022-08-24T08:25:53.037Z,1.70
2022-08-24T08:26:52.991Z,1.70
2022-08-24T08:27:52.983Z,1.50
2022-08-24T08:28:52.992Z,1.00
2022-08-24T08:29:53.834Z,1.10
2022-08-24T08:30:53.047Z,1.40
2022-08-24T08:31:52.934Z,1.60
2022-08-24T08:32:52.930Z,1.70
2022-08-24T08:33:52.918Z,1.30
2022-08-24T08:34:53.381Z,0.90
2022-08-24T08:35:53.832Z,0.80
2022-08-24T08:36:52.899Z,2.40
2022-08-24T08:37:52.912Z,1.50
2022-08-24T08:38:53.841Z,1.40
2022-08-24T08:39:52.884Z,2.30
2022-08-24T08:40:52.850Z,2.20
2022-08-24T08:41:52.836Z,2.70
2022-08-24T08:42:53.334Z,1.50
2022-08-24T08:43:52.839Z,2.00
2022-08-24T08:44:53.340Z,1.00
2022-08-24T08:45:55.398Z,1.40
2022-08-24T08:46:53.808Z,2.10
2022-08-24T08:47:52.797Z,1.50
2022-08-24T08:48:52.795Z,1.50
2022-08-24T08:49:52.762Z,1.50
2022-08-24T08:50:52.739Z,1.40
2022-08-24T08:51:52.744Z,2.10
2022-08-24T08:52:52.739Z,1.40
2022-08-24T08:53:52.717Z,1.40
2022-08-24T08:54:55.343Z,1.40
2022-08-24T08:55:53.444Z,1.70
2022-08-24T08:56:57.292Z,1.60
2022-08-24T08:57:53.708Z,2.10
2022-08-24T08:58:57.167Z,1.70
2022-08-24T08:59:53.638Z,2.60
2022-08-24T09:00:52.646Z,1.40
2022-08-24T09:01:52.682Z,1.50
2022-08-24T09:02:52.606Z,1.60
2022-08-24T09:03:52.700Z,1.30
2022-08-24T09:04:52.674Z,1.60
2022-08-24T09:05:52.615Z,3.60
2022-08-24T09:06:52.585Z,1.20
2022-08-24T09:07:53.678Z,1.20
2022-08-24T09:08:55.345Z,1.50
2022-08-24T09:09:52.536Z,1.30
2022-08-24T09:10:52.513Z,1.50
2022-08-24T09:11:52.506Z,1.00
2022-08-24T09:12:52.498Z,2.00
2022-08-24T09:13:52.551Z,1.20
2022-08-24T09:14:53.346Z,2.50
2022-08-24T09:15:53.245Z,1.00
2022-08-24T09:16:53.553Z,1.40
2022-08-24T09:17:52.461Z,1.30
2022-08-24T09:18:52.887Z,2.40
2022-08-24T09:19:52.427Z,1.30
2022-08-24T09:20:53.420Z,3.00
2022-08-24T09:21:54.271Z,1.30
2022-08-24T09:22:52.391Z,1.90
2022-08-24T09:23:52.369Z,1.00
2022-08-24T09:24:52.897Z,2.90
2022-08-24T09:25:52.364Z,2.10
2022-08-24T09:26:52.376Z,1.60
2022-08-24T09:27:52.338Z,1.20
2022-08-24T09:28:52.329Z,1.40
2022-08-24T09:29:52.306Z,3.10
2022-08-24T09:30:54.942Z,1.40
2022-08-24T09:31:52.314Z,2.10
2022-08-24T09:32:52.290Z,1.90
2022-08-24T09:33:54.845Z,2.40
2022-08-24T09:34:53.293Z,2.20
2022-08-24T09:35:52.266Z,1.20
2022-08-24T09:36:52.849Z,1.40
2022-08-24T09:37:52.239Z,1.00
2022-08-24T09:38:52.421Z,1.20
2022-08-24T09:39:52.892Z,1.70
2022-08-24T09:40:52.191Z,1.50
2022-08-24T09:41:52.200Z,1.40
2022-08-24T09:42:52.178Z,1.10
2022-08-24T09:43:52.381Z,2.30
2022-08-24T09:44:52.163Z,1.00
2022-08-24T09:45:52.143Z,2.80
2022-08-24T09:46:52.155Z,1.60
2022-08-24T09:47:52.119Z,1.30
2022-08-24T09:48:52.117Z,1.40
2022-08-24T09:49:52.090Z,1.70
2022-08-24T09:50:52.103Z,1.00
2022-08-24T09:51:52.079Z,2.40
2022-08-24T09:52:52.072Z,1.20
2022-08-24T09:53:52.065Z,0.90
2022-08-24T09:54:54.854Z,2.00
2022-08-24T09:55:52.038Z,1.00
2022-08-24T09:56:59.864Z,1.20
2022-08-24T09:58:01.512Z,1.40
2022-08-24T09:58:53.004Z,1.80
2022-08-24T09:59:53.005Z,1.50
2022-08-24T10:00:52.018Z,1.40
2022-08-24T10:01:51.999Z,1.10
2022-08-24T10:02:54.863Z,0.90
2022-08-24T10:03:51.942Z,1.70
2022-08-24T10:04:52.038Z,1.40
2022-08-24T10:05:52.037Z,0.90
2022-08-24T10:06:51.941Z,1.90
2022-08-24T10:07:51.913Z,0.70
2022-08-24T10:08:52.389Z,1.50
2022-08-24T10:09:52.881Z,1.40
2022-08-24T10:10:51.878Z,1.80
2022-08-24T10:11:51.863Z,3.20
2022-08-24T10:12:56.137Z,1.50
2022-08-24T10:13:58.359Z,0.80
2022-08-24T10:14:52.892Z,2.30
2022-08-24T10:15:51.807Z,0.70
2022-08-24T10:16:51.886Z,1.00
2022-08-24T10:17:52.365Z,1.60
2022-08-24T10:18:52.849Z,1.80
2022-08-24T10:19:51.782Z,3.40
2022-08-24T10:20:51.897Z,1.10
2022-08-24T10:21:51.758Z,0.60
2022-08-24T10:22:51.751Z,2.00
2022-08-24T10:23:52.357Z,3.30
2022-08-24T10:24:51.728Z,0.90
2022-08-24T10:25:51.740Z,1.60
2022-08-24T10:26:51.707Z,1.10
2022-08-24T10:27:51.691Z,1.50
2022-08-24T10:28:51.688Z,0.90
2022-08-24T10:29:51.693Z,1.00
2022-08-24T10:30:51.666Z,1.60
2022-08-24T10:31:51.723Z,0.70
2022-08-24T10:32:51.642Z,0.40
2022-08-24T10:33:53.391Z,1.20
2022-08-24T10:34:51.619Z,3.00
2022-08-24T10:35:51.610Z,3.20
2022-08-24T10:36:51.594Z,0.80
2022-08-24T10:37:51.615Z,4.50
2022-08-24T10:38:51.572Z,0.50
2022-08-24T10:39:51.669Z,0.90
2022-08-24T10:40:51.559Z,1.10
2022-08-24T10:41:51.576Z,1.30
2022-08-24T10:42:51.554Z,0.60
2022-08-24T10:43:51.521Z,0.60
2022-08-24T10:44:51.530Z,0.70
2022-08-24T10:45:54.469Z,1.60
2022-08-24T10:46:55.447Z,1.40
2022-08-24T10:47:52.515Z,0.80
2022-08-24T10:48:51.469Z,0.80
2022-08-24T10:49:51.462Z,0.90
2022-08-24T10:50:51.444Z,0.80
2022-08-24T10:51:54.390Z,1.00
2022-08-24T10:52:51.425Z,0.50
2022-08-24T10:53:51.447Z,1.80
2022-08-24T10:54:51.405Z,0.50
2022-08-24T10:55:51.385Z,0.60
2022-08-24T10:56:51.387Z,0.90
2022-08-24T10:57:51.373Z,1.70
2022-08-24T10:58:51.400Z,1.20
2022-08-24T10:59:51.373Z,0.90
2022-08-24T11:00:51.359Z,1.20
2022-08-24T11:01:53.901Z,1.10
2022-08-24T11:02:51.325Z,1.10
2022-08-24T11:03:51.302Z,1.30
2022-08-24T11:04:51.296Z,1.70
2022-08-24T11:05:51.297Z,3.00
2022-08-24T11:06:51.284Z,0.70
2022-08-24T11:07:51.272Z,1.60
2022-08-24T11:08:51.263Z,2.00
2022-08-24T11:09:51.263Z,1.00
2022-08-24T11:10:51.230Z,0.70
2022-08-24T11:11:51.222Z,1.30
2022-08-24T11:12:51.243Z,0.30
2022-08-24T11:13:51.190Z,0.40
2022-08-24T11:14:51.192Z,1.40
2022-08-24T11:15:51.504Z,0.80
2022-08-24T11:16:55.783Z,0.60
2022-08-24T11:17:52.146Z,2.50
2022-08-24T11:18:51.873Z,2.10
2022-08-24T11:19:51.137Z,2.10
2022-08-24T11:20:51.134Z,1.20
2022-08-24T11:21:51.412Z,0.70
2022-08-24T11:22:51.104Z,1.30
2022-08-24T11:23:51.092Z,2.20
2022-08-24T11:24:51.080Z,1.50
2022-08-24T11:25:51.063Z,0.60
2022-08-24T11:26:53.844Z,0.50
2022-08-24T11:27:51.093Z,0.80
2022-08-24T11:28:51.045Z,0.40
2022-08-24T11:29:51.030Z,1.00
2022-08-24T11:30:51.909Z,1.40
2022-08-24T11:31:51.070Z,0.80
2022-08-24T11:32:50.985Z,1.10
2022-08-24T11:33:50.989Z,1.30
2022-08-24T11:34:51.921Z,1.70
2022-08-24T11:35:50.966Z,0.90
2022-08-24T11:36:50.943Z,0.80
2022-08-24T11:37:51.992Z,0.60
2022-08-24T11:38:50.942Z,0.50
2022-08-24T11:39:51.059Z,1.10
2022-08-24T11:40:50.955Z,1.80
2022-08-24T11:41:50.937Z,0.80
2022-08-24T11:42:50.887Z,0.60
2022-08-24T11:44:11.918Z,0.50
2022-08-24T11:44:57.414Z,0.50
2022-08-24T11:45:51.960Z,0.30
2022-08-24T11:46:50.960Z,0.60
2022-08-24T11:47:51.380Z,0.60
2022-08-24T11:48:57.384Z,1.80
2022-08-24T11:50:13.420Z,1.40
2022-08-24T11:50:50.826Z,1.50
2022-08-24T11:51:50.803Z,0.60
2022-08-24T11:52:51.176Z,1.60
2022-08-24T11:53:50.793Z,0.70
2022-08-24T11:54:50.773Z,0.30
2022-08-24T11:55:51.599Z,1.20
2022-08-24T11:56:51.742Z,1.10
2022-08-24T11:57:50.745Z,0.50
2022-08-24T11:58:50.775Z,0.70
2022-08-24T11:59:50.713Z,0.60
2022-08-24T12:01:14.395Z,1.40
2022-08-24T12:01:50.856Z,2.30
2022-08-24T12:02:50.825Z,0.20
2022-08-24T12:03:52.730Z,1.80
2022-08-24T12:05:11.669Z,1.30
2022-08-24T12:05:50.673Z,1.10
2022-08-24T12:06:55.717Z,1.20
2022-08-24T12:07:51.678Z,0.30
2022-08-24T12:08:56.675Z,1.30
2022-08-24T12:09:50.626Z,1.10
2022-08-24T12:10:50.634Z,1.10
2022-08-24T12:11:50.594Z,0.50
2022-08-24T12:12:50.583Z,1.10
2022-08-24T12:13:50.650Z,0.50
2022-08-24T12:14:52.667Z,1.90
2022-08-24T12:15:52.266Z,0.70
2022-08-24T12:16:50.576Z,0.50
2022-08-24T12:17:50.539Z,1.20
2022-08-24T12:19:11.524Z,1.00
2022-08-24T12:19:50.529Z,1.60
2022-08-24T12:20:51.498Z,0.50
2022-08-24T12:21:51.392Z,1.10
2022-08-24T12:22:50.467Z,0.60
2022-08-24T12:23:50.471Z,0.30
2022-08-24T12:24:50.453Z,0.60
2022-08-24T12:25:51.147Z,1.20
2022-08-24T12:26:50.457Z,1.90
2022-08-24T12:27:50.415Z,1.30
2022-08-24T12:28:54.271Z,1.50
2022-08-24T12:29:50.419Z,1.10
2022-08-24T12:30:51.460Z,0.80
2022-08-24T12:31:50.930Z,1.70
2022-08-24T12:32:50.392Z,0.80
2022-08-24T12:33:50.355Z,1.10
2022-08-24T12:34:50.340Z,1.40
2022-08-24T12:35:50.357Z,0.80
2022-08-24T12:36:50.317Z,0.40
2022-08-24T12:37:50.319Z,0.30
2022-08-24T12:38:50.322Z,1.80
2022-08-24T12:39:50.382Z,0.70
2022-08-24T12:40:50.337Z,0.90
2022-08-24T12:41:50.290Z,1.10
2022-08-24T12:42:52.600Z,0.80
2022-08-24T12:43:50.305Z,1.20
2022-08-24T12:44:50.253Z,1.80
2022-08-24T12:45:50.257Z,0.40
2022-08-24T12:46:50.268Z,1.20
2022-08-24T12:47:50.241Z,1.00
2022-08-24T12:48:50.208Z,1.00
2022-08-24T12:49:50.194Z,0.90
2022-08-24T12:50:50.234Z,1.70
2022-08-24T12:51:50.166Z,1.00
2022-08-24T12:52:50.184Z,1.00
2022-08-24T12:53:50.176Z,1.10
2022-08-24T12:54:50.133Z,0.90
2022-08-24T12:55:52.549Z,0.40
2022-08-24T12:56:50.112Z,0.50
2022-08-24T12:57:54.039Z,0.60
2022-08-24T12:58:54.464Z,0.60
2022-08-24T12:59:51.147Z,0.80
2022-08-24T13:00:50.116Z,0.60
2022-08-24T13:01:50.151Z,1.00
2022-08-24T13:02:50.049Z,0.40
2022-08-24T13:03:50.062Z,0.60
2022-08-24T13:04:50.071Z,0.50
2022-08-24T13:05:50.027Z,0.80
2022-08-24T13:06:50.021Z,0.50
2022-08-24T13:07:50.007Z,0.60
2022-08-24T13:08:50.002Z,1.30
2022-08-24T13:09:49.991Z,0.90
2022-08-24T13:10:49.997Z,1.80
2022-08-24T13:11:49.988Z,1.30
2022-08-24T13:12:49.971Z,0.80
2022-08-24T13:13:51.020Z,0.70
2022-08-24T13:14:49.948Z,0.90
2022-08-24T13:15:51.073Z,0.60
2022-08-24T13:16:49.903Z,1.40
2022-08-24T13:17:49.938Z,1.60
2022-08-24T13:18:49.897Z,1.00